Latest Weather Observations for Eucla

IDW60801

Issued at 5:02 pm WST Thursday 3 September 2015 (issued every 30 minutes, with the page automatically refreshed every 10 minutes)

About weather observations | Map of weather stations | Latest weather observations for WA | Other Formats
Station Details ID: 011003 Name: EUCLA Lat: -31.68 Lon: 128.90 Height: 93.1 m
Data from the previous 72 hours. | See also: Recent months at Eucla
Date/Time
WST
Temp
°C
App
Temp
°C
Dew
Point
Rel
Hum
%
Delta-T
°C
Wind Press
QNH
hPa
Press
MSL
hPa
Rain
since 9 am
mm
Dir
 
Spd
km/h
Gust
km/h
Spd
kts
Gust
kts
03/05:00pm 12.7 9.6 7.4 70 2.6 ESE 13 17 7 9 1026.2 1026.1 0.0
03/04:30pm 13.4 9.9 7.2 66 3.0 ESE 15 22 8 12 1026.1 1026.0 0.0
03/04:00pm 14.0 10.0 6.6 61 3.6 ESE 17 26 9 14 1026.2 1026.1 0.0
03/03:30pm 14.7 10.9 7.7 63 3.5 ESE 17 26 9 14 1026.3 1026.2 0.0
03/03:00pm 15.2 11.4 7.7 61 3.7 ESE 17 26 9 14 1026.2 1026.1 0.0
03/02:30pm 15.2 11.3 7.0 58 4.0 ESE 17 26 9 14 1026.2 1026.1 0.0
03/02:00pm 15.4 11.3 6.1 54 4.5 ESE 17 24 9 13 1026.0 1025.9 0.0
03/01:30pm 15.9 12.0 6.9 55 4.4 SE 17 24 9 13 1025.9 1025.8 0.0
03/01:00pm 16.0 12.0 6.7 54 4.6 ESE 17 28 9 15 1026.2 1026.1 0.0
03/12:30pm 15.9 12.1 7.4 57 4.2 ESE 17 26 9 14 1026.3 1026.2 0.0
03/12:00pm 15.7 12.3 7.7 59 4.0 ESE 15 24 8 13 1026.8 1026.8 0.0
03/11:30am 15.5 12.0 7.3 58 4.1 ESE 15 26 8 14 1027.1 1027.1 0.0
03/11:00am 15.6 12.6 7.6 59 4.0 E 13 24 7 13 1027.5 1027.5 0.0
03/10:30am 15.6 12.1 8.8 64 3.5 ESE 17 24 9 13 1027.8 1027.8 0.0
03/10:00am 14.4 11.7 8.8 69 2.8 SE 13 19 7 10 1028.2 1028.2 0.0
03/09:30am 14.3 11.9 8.5 68 2.9 SE 11 17 6 9 1028.3 1028.3 0.0
03/09:00am 14.0 12.9 9.8 76 2.2 SE 6 11 3 6 1028.3 1028.3 1.8
03/08:30am 13.1 12.2 11.2 88 1.0 SW 7 11 4 6 1028.3 1028.3 1.6
03/08:00am 12.2 11.4 10.9 92 0.7 WNW 6 7 3 4 1028.1 1028.1 1.6
03/07:30am 11.9 10.6 11.1 95 0.4 WNW 9 13 5 7 1027.9 1027.9 1.6
03/07:00am 11.2 10.1 10.6 96 0.3 WSW 7 11 4 6 1027.6 1027.6 1.6
03/06:30am 10.6 9.5 10.0 96 0.3 W 6 9 3 5 1027.0 1027.0 1.2
03/06:00am 10.1 8.6 9.3 95 0.4 WNW 7 9 4 5 1026.6 1026.6 1.2
03/05:30am 9.8 7.9 9.0 95 0.4 W 9 13 5 7 1026.3 1026.2 1.2
03/05:00am 9.7 7.4 8.9 95 0.4 W 11 15 6 8 1026.1 1026.0 1.2
03/04:30am 9.8 8.3 9.0 95 0.4 WSW 7 11 4 6 1025.8 1025.7 1.2
03/04:00am 9.9 8.0 9.1 95 0.4 W 9 13 5 7 1025.4 1025.3 0.8
03/03:30am 10.0 8.5 9.1 94 0.4 W 7 11 4 6 1025.2 1025.1 0.8
03/03:00am 9.6 7.6 8.7 94 0.4 WNW 9 11 5 6 1024.9 1024.8 0.8
03/02:30am 9.4 7.3 8.3 93 0.5 WNW 9 11 5 6 1025.0 1024.9 0.6
03/02:00am 10.2 8.7 9.0 92 0.6 SW 7 11 4 6 1025.0 1024.9 0.6
03/01:30am 10.3 8.8 9.1 92 0.6 WNW 7 9 4 5 1025.0 1024.9 0.6
03/01:00am 10.3 8.8 9.1 92 0.6 WNW 7 9 4 5 1025.1 1025.0 0.6
03/12:30am 10.5 8.7 9.3 92 0.6 W 9 11 5 6 1025.2 1025.1 0.6
03/12:00am 10.9 9.2 9.7 92 0.6 SSW 9 13 5 7 1025.3 1025.2 0.6
 
Date/Time
WST
Temp
°C
App
Temp
°C
Dew
Point
Rel
Hum
%
Delta-T
°C
Wind Press
QNH
hPa
Press
MSL
hPa
Rain
since 9 am
mm
Dir
 
Spd
km/h
Gust
km/h
Spd
kts
Gust
kts
02/11:30pm 10.7 9.3 9.5 92 0.6 SW 7 13 4 7 1025.1 1025.0 0.6
02/11:00pm 10.8 9.0 9.6 92 0.6 S 9 15 5 8 1025.3 1025.2 0.6
02/10:30pm 11.1 9.1 10.0 93 0.6 SSW 11 17 6 9 1025.4 1025.3 0.4
02/10:00pm 11.0 9.3 9.9 93 0.6 SSW 9 15 5 8 1025.4 1025.3 0.4
02/09:30pm 11.0 9.2 9.6 91 0.7 WSW 9 15 5 8 1025.4 1025.3 0.4
02/09:00pm 11.6 9.9 9.7 88 1.0 WSW 9 13 5 7 1025.2 1025.1 0.2
02/08:30pm 11.8 9.4 10.0 89 0.9 S 13 20 7 11 1024.9 1024.8 0.2
02/08:00pm 11.6 9.9 9.9 89 0.9 WSW 9 13 5 7 1024.5 1024.4 0.0
02/07:30pm 11.7 10.1 10.1 90 0.8 WSW 9 15 5 8 1024.2 1024.1 0.0
02/07:00pm 11.7 9.6 9.9 89 0.9 SW 11 17 6 9 1024.0 1023.9 0.0
02/06:30pm 11.5 8.7 9.9 90 0.8 SSW 15 30 8 16 1023.7 1023.6 0.0
02/06:00pm 11.5 8.9 9.4 87 1.1 SSW 13 24 7 13 1023.3 1023.2 0.0
02/05:30pm 13.0 9.6 9.1 77 2.0 SSW 17 24 9 13 1022.9 1022.8 0.0
02/05:00pm 12.8 8.9 9.3 79 1.8 SSW 20 33 11 18 1022.8 1022.7 0.0
02/04:30pm 13.7 9.7 8.3 70 2.7 SW 19 32 10 17 1022.6 1022.5 0.0
02/04:00pm 14.0 9.3 9.2 73 2.4 SW 24 35 13 19 1022.2 1022.1 0.0
02/03:30pm 14.4 10.4 9.0 70 2.8 SW 20 35 11 19 1021.7 1021.6 0.0
02/03:00pm 15.5 10.8 9.4 67 3.2 SW 24 37 13 20 1021.4 1021.3 0.0
02/02:30pm 15.0 9.8 8.9 67 3.1 SW 26 41 14 22 1021.2 1021.1 0.0
02/02:00pm 15.2 10.5 9.3 68 3.0 SW 24 41 13 22 1020.9 1020.8 0.0
02/01:30pm 15.0 10.4 9.6 70 2.8 SW 24 37 13 20 1020.6 1020.5 0.0
02/01:00pm 15.1 9.3 9.5 69 2.9 SW 30 41 16 22 1020.5 1020.4 0.0
02/12:30pm 15.5 10.9 9.8 69 3.0 SW 24 41 13 22 1020.5 1020.4 0.0
02/12:00pm 15.2 9.4 9.6 69 2.9 SW 30 50 16 27 1020.6 1020.5 0.0
02/11:30am 15.1 9.6 9.0 67 3.1 SW 28 46 15 25 1020.6 1020.5 0.0
02/11:07am 15.2 9.9 10.0 71 2.7 SW 28 48 15 26 1020.7 1020.6 0.0
02/11:00am 15.5 10.3 10.1 70 2.8 SW 28 41 15 22 1020.7 1020.6 0.0
02/10:40am 15.2 9.5 9.8 70 2.8 SW 30 48 16 26 1020.8 1020.7 0.0
02/10:30am 15.0 9.1 9.1 68 3.0 SW 30 43 16 23 1020.7 1020.6 0.0
02/10:00am 14.5 9.8 10.5 77 2.1 SW 26 41 14 22 1020.8 1020.7 0.0
02/09:30am 15.1 9.9 10.1 72 2.6 SW 28 44 15 24 1020.5 1020.4 0.0
02/09:00am 14.2 8.3 9.2 72 2.6 SW 30 48 16 26 1020.3 1020.2 4.2
02/08:58am 14.4 9.0 9.4 72 2.6 SW 28 48 15 26 1020.2 1020.1 4.2
02/08:30am 14.2 8.9 10.0 76 2.2 SW 28 44 15 24 1019.8 1019.7 4.2
02/08:00am 12.3 7.0 9.9 85 1.2 SW 28 43 15 23 1019.4 1019.3 4.2
02/07:30am 13.7 8.6 7.7 67 3.0 SW 24 37 13 20 1018.7 1018.7 4.0
02/07:16am 13.9 8.1 7.9 67 3.0 SSW 28 48 15 26 1018.3 1018.3 4.0
02/07:00am 13.0 7.2 6.4 64 3.2 SSW 26 39 14 21 1017.9 1017.9 4.0
02/06:42am 12.7 6.5 6.1 64 3.1 SW 28 46 15 25 1017.6 1017.6 4.0
02/06:30am 12.4 7.3 6.0 65 3.0 SW 22 35 12 19 1017.4 1017.4 4.0
02/06:00am 11.7 6.4 5.1 64 3.0 SW 22 35 12 19 1016.7 1016.6 4.0
02/05:30am 12.0 6.0 5.4 64 3.1 SW 26 43 14 23 1016.2 1016.1 4.0
02/05:00am 12.0 6.5 5.9 66 2.9 SW 24 41 13 22 1015.7 1015.6 4.0
02/04:30am 12.1 7.1 6.6 69 2.6 SW 22 35 12 19 1015.3 1015.2 4.0
02/04:00am 11.6 6.0 5.5 66 2.8 SW 24 43 13 23 1014.8 1014.7 4.0
02/03:45am 12.0 5.6 5.4 64 3.1 SW 28 48 15 26 1014.5 1014.4 4.0
02/03:30am 11.7 5.9 6.4 70 2.5 SW 26 44 14 24 1014.3 1014.2 4.0
02/03:00am 12.0 5.9 6.7 70 2.5 SW 28 48 15 26 1013.8 1013.7 4.0
02/02:36am 11.5 5.4 6.6 72 2.3 SW 28 46 15 25 1013.6 1013.5 4.0
02/02:30am 11.6 5.9 6.9 73 2.3 SW 26 41 14 22 1013.7 1013.6 4.0
02/02:00am 11.1 6.1 6.5 73 2.2 SW 22 35 12 19 1013.5 1013.4 4.0
02/01:30am 9.9 5.8 8.0 88 0.9 SW 19 37 10 20 1013.1 1013.0 4.0
02/01:00am 10.3 6.3 9.2 93 0.5 WSW 20 33 11 18 1013.1 1013.0 4.0
02/12:30am 10.0 5.7 9.2 95 0.4 WSW 22 37 12 20 1013.0 1012.9 4.0
02/12:00am 9.7 4.9 8.8 94 0.4 W 24 35 13 19 1012.5 1012.4 4.0
 
Date/Time
WST
Temp
°C
App
Temp
°C
Dew
Point
Rel
Hum
%
Delta-T
°C
Wind Press
QNH
hPa
Press
MSL
hPa
Rain
since 9 am
mm
Dir
 
Spd
km/h
Gust
km/h
Spd
kts
Gust
kts
01/11:30pm 9.2 3.9 8.3 94 0.4 W 26 41 14 22 1012.4 1012.3 3.8
01/11:00pm 8.8 2.9 7.7 93 0.5 WNW 28 46 15 25 1012.0 1011.9 3.6
01/10:30pm 8.6 2.3 7.4 92 0.6 WNW 30 48 16 26 1011.7 1011.6 2.8
01/10:00pm 8.6 1.9 7.2 91 0.7 WNW 32 57 17 31 1011.5 1011.4 2.4
01/09:30pm 8.6 1.8 7.1 90 0.7 WNW 32 50 17 27 1011.5 1011.4 2.2
01/09:02pm 9.2 2.3 6.5 83 1.3 WNW 32 50 17 27 1011.2 1011.1 0.4
01/09:00pm 9.4 2.3 6.5 82 1.4 WNW 33 50 18 27 1011.1 1011.0 0.2
01/08:30pm 9.9 2.1 4.9 71 2.3 WNW 35 59 19 32 1010.8 1010.7 0.2
01/08:00pm 9.8 2.6 5.2 73 2.1 WNW 32 59 17 32 1010.9 1010.8 0.2
01/07:34pm 9.8 3.4 5.0 72 2.2 WNW 28 46 15 25 1010.8 1010.7 0.2
01/07:30pm 9.8 3.4 5.0 72 2.2 WNW 28 44 15 24 1010.8 1010.7 0.2
01/07:00pm 9.9 3.9 5.1 72 2.2 WNW 26 41 14 22 1010.5 1010.4 0.2
01/06:36pm 10.2 3.8 5.0 70 2.4 WNW 28 48 15 26 1010.5 1010.4 0.2
01/06:30pm 10.3 4.6 5.1 70 2.4 WNW 24 37 13 20 1010.6 1010.5 0.2
01/06:00pm 10.9 5.2 4.8 66 2.8 WNW 24 37 13 20 1010.0 1009.9 0.2
01/05:30pm 11.2 6.5 5.3 67 2.7 WNW 19 30 10 16 1009.6 1009.5 0.2
01/05:00pm 11.6 5.9 5.0 64 3.0 WNW 24 37 13 20 1009.2 1009.1 0.2
01/04:30pm 12.3 6.7 5.5 63 3.2 WNW 24 39 13 21 1008.9 1008.8 0.2
01/04:00pm 13.0 7.8 5.7 61 3.5 WNW 22 37 12 20 1008.4 1008.3 0.2
01/03:30pm 12.6 6.1 6.6 67 2.9 W 30 52 16 28 1008.2 1008.0 0.2
01/03:00pm 13.7 6.7 6.1 60 3.6 WNW 32 52 17 28 1007.7 1007.6 0.2
01/02:53pm 13.4 6.7 5.6 59 3.7 WNW 30 52 16 28 1007.7 1007.6 0.2
01/02:30pm 13.4 7.2 6.0 61 3.5 W 28 41 15 22 1007.7 1007.6 0.2
01/02:00pm 12.9 7.1 7.8 71 2.5 W 28 61 15 33 1007.7 1007.6 0.2
01/01:30pm 14.4 7.1 4.7 52 4.5 WNW 32 54 17 29 1007.1 1007.0 0.0
01/01:00pm 13.5 6.2 4.6 55 4.1 W 32 54 17 29 1007.3 1007.2 0.0
01/12:30pm 14.3 6.8 4.3 51 4.6 WNW 33 52 18 28 1007.0 1006.9 0.0
01/12:00pm 15.8 8.5 4.5 47 5.3 WNW 32 52 17 28 1007.0 1006.9 0.0
01/11:34am 15.4 8.9 4.8 49 5.0 WNW 28 46 15 25 1007.2 1007.1 0.0
01/11:30am 15.2 8.3 4.6 49 5.0 WNW 30 46 16 25 1007.4 1007.3 0.0
01/11:00am 14.1 6.9 4.9 54 4.3 W 32 50 17 27 1007.7 1007.6 0.0
01/10:31am 14.1 7.1 6.2 59 3.8 W 32 50 17 27 1007.9 1007.7 0.0
01/10:30am 13.9 7.3 6.0 59 3.8 W 30 44 16 24 1007.9 1007.7 0.0
01/10:18am 14.1 8.0 6.5 60 3.7 WNW 28 50 15 27 1007.9 1007.7 0.0
01/10:00am 13.6 7.2 6.9 64 3.3 WNW 30 46 16 25 1008.1 1007.9 0.0
01/09:51am 15.0 9.2 8.0 63 3.5 W 28 46 15 25 1007.9 1007.7 0.0
01/09:30am 13.7 8.2 7.5 66 3.1 W 26 43 14 23 1008.0 1007.8 0.0
01/09:00am 13.2 8.4 7.4 68 2.8 W 22 33 12 18 1008.0 1007.8 6.0
01/08:30am 14.0 9.2 9.0 72 2.5 W 24 37 13 20 1007.9 1007.7 6.0
01/08:00am 13.3 9.8 10.1 81 1.7 WNW 19 32 10 17 1007.7 1007.6 6.0
01/07:30am 12.6 9.1 10.8 89 0.9 WNW 20 30 11 16 1007.6 1007.6 6.0
01/07:00am 12.0 9.1 10.9 93 0.6 NW 17 28 9 15 1007.3 1007.3 6.0
01/06:30am 11.0 8.3 10.4 96 0.3 NNW 15 20 8 11 1006.9 1006.9 6.0
01/06:00am 10.5 7.7 9.9 96 0.3 N 15 20 8 11 1006.8 1006.8 6.0
01/05:30am 9.9 7.3 9.3 96 0.3 N 13 17 7 9 1007.0 1007.0 6.0
01/05:00am 10.0 8.1 9.2 95 0.4 N 9 13 5 7 1007.0 1007.0 6.0
01/04:30am 10.4 7.9 9.6 95 0.4 N 13 17 7 9 1007.1 1007.1 6.0
01/04:00am 10.6 9.2 9.7 94 0.5 NE 7 11 4 6 1007.7 1007.7 6.0
01/03:30am 10.8 9.4 9.6 92 0.6 WNW 7 9 4 5 1008.1 1008.0 4.0
01/03:00am 11.0 7.1 9.4 90 0.8 WSW 20 33 11 18 1008.8 1008.7 3.0
01/02:43am 11.9 7.4 10.0 88 1.0 W 24 59 13 32 1009.4 1009.3 2.4
01/02:37am 11.7 8.0 10.1 90 0.8 N 20 35 11 19 1008.7 1008.6 2.2
01/02:30am 11.6 7.1 9.9 89 0.9 NNE 24 37 13 20 1006.2 1006.2 2.2
01/02:00am 11.2 5.7 9.1 87 1.1 NNE 28 41 15 22 1006.8 1006.8 2.0
01/01:56am 11.3 6.3 9.4 88 1.0 N 26 37 14 20 1007.4 1007.4 2.0
01/01:45am 11.8 6.9 10.0 89 0.9 NNW 26 50 14 27 1009.5 1009.4 1.6
01/01:30am 12.3 7.7 9.5 83 1.4 NNE 24 35 13 19 1007.7 1007.7 0.2
01/01:00am 11.8 7.8 9.2 84 1.3 NE 20 32 11 17 1007.5 1007.5 0.2
01/12:30am 11.5 8.1 10.7 95 0.4 NE 19 28 10 15 1008.7 1008.6 0.2
01/12:00am 11.3 8.7 10.7 96 0.3 NE 15 20 8 11 1009.7 1009.6 0.2
 
Date/Time
WST
Temp
°C
App
Temp
°C
Dew
Point
Rel
Hum
%
Delta-T
°C
Wind Press
QNH
hPa
Press
MSL
hPa
Rain
since 9 am
mm
Dir
 
Spd
km/h
Gust
km/h
Spd
kts
Gust
kts
31/11:30pm 11.5 9.7 10.7 95 0.4 NE 11 15 6 8 1010.7 1010.7 0.2
31/11:00pm 11.2 8.9 10.4 95 0.4 ENE 13 19 7 10 1010.7 1010.7 0.2
31/10:30pm 10.8 9.5 9.9 94 0.5 NE 7 9 4 5 1011.5 1011.5 0.2
31/10:00pm 11.7 10.3 10.9 95 0.4 E 9 13 5 7 1012.0 1012.0 0.2
31/09:30pm 11.4 9.5 10.5 94 0.5 ENE 11 15 6 8 1012.5 1012.5 0.2
31/09:00pm 11.7 10.2 10.6 93 0.6 E 9 13 5 7 1013.3 1013.3 0.2
31/08:30pm 12.2 10.5 11.1 93 0.6 E 11 13 6 7 1013.4 1013.4 0.2
31/08:00pm 12.4 10.7 11.3 93 0.6 ESE 11 15 6 8 1013.8 1013.8 0.2
31/07:30pm 12.4 10.7 11.1 92 0.7 ESE 11 13 6 7 1014.1 1014.1 0.2
31/07:00pm 12.4 10.7 11.1 92 0.7 ESE 11 13 6 7 1014.1 1014.1 0.2
31/06:30pm 12.5 11.2 11.2 92 0.7 ESE 9 11 5 6 1014.2 1014.2 0.2
31/06:00pm 12.7 11.4 11.3 91 0.7 ESE 9 11 5 6 1014.2 1014.2 0.2
31/05:30pm 12.9 11.6 11.3 90 0.8 ESE 9 9 5 5 1014.4 1014.4 0.2

Other Formats:

Comma delimited format used in spreadsheet applications
http://www.bom.gov.au/fwo/IDW60801/IDW60801.94647.axf

JavaScript Object Notation format (JSON) in row-major order
http://www.bom.gov.au/fwo/IDW60801/IDW60801.94647.json